Time;durP1;ratioP1;P1;durP2;ratioP2;P2;SDS_P1;SDS_P2;PMS_P1;PMS_P2;Temp;Humidity;BMP_temperature;BMP_pressure;BME280_temperature;BME280_humidity;BME280_pressure;Samples;Min_cycle;Max_cycle;Signal;HPM_P1;HPM_P2
2023/08/29 00:00:45;;;;;;;0.30;0.30;;;13.00;99.90;;;;;;5115624;28;20076;-80
2023/08/29 00:03:11;;;;;;;0.30;0.30;;;13.00;99.90;;;;;;5115520;28;20043;-80
2023/08/29 00:05:38;;;;;;;0.30;0.30;;;12.90;99.90;;;;;;5115661;28;20096;-79
2023/08/29 00:08:04;;;;;;;;;;;12.80;99.90;;;;;;5115469;28;20054;-81
2023/08/29 00:10:30;;;;;;;0.40;0.40;;;12.70;99.90;;;;;;5115361;28;19916;-80
2023/08/29 00:12:56;;;;;;;0.40;0.40;;;13.20;99.90;;;;;;5115377;28;20371;-80
2023/08/29 00:15:22;;;;;;;0.40;0.40;;;12.70;99.90;;;;;;5115409;28;20412;-80
2023/08/29 00:17:47;;;;;;;0.30;0.30;;;12.70;99.90;;;;;;5115391;28;20047;-80
2023/08/29 00:20:13;;;;;;;0.30;0.30;;;12.70;99.90;;;;;;5115117;28;20038;-80
2023/08/29 00:22:39;;;;;;;0.30;0.30;;;12.70;99.90;;;;;;5115273;28;20077;-81
2023/08/29 00:25:04;;;;;;;0.40;0.40;;;12.90;99.90;;;;;;5115086;28;20031;-80
2023/08/29 00:27:30;;;;;;;0.45;0.45;;;12.60;99.90;;;;;;5115116;28;20039;-80
2023/08/29 00:29:56;;;;;;;0.40;0.40;;;12.60;99.90;;;;;;5114934;28;20475;-81
2023/08/29 00:32:21;;;;;;;0.63;0.63;;;12.60;99.90;;;;;;5113723;28;20045;-80
2023/08/29 00:34:47;;;;;;;0.37;0.37;;;12.80;99.90;;;;;;5115029;28;20174;-81
2023/08/29 00:37:13;;;;;;;0.30;0.30;;;12.60;99.90;;;;;;5114970;28;20039;-80
2023/08/29 00:39:38;;;;;;;0.40;0.40;;;12.60;99.90;;;;;;5114871;28;20035;-81
2023/08/29 00:42:04;;;;;;;0.30;0.30;;;12.60;99.90;;;;;;5114829;28;20039;-80
2023/08/29 00:44:30;;;;;;;0.33;0.33;;;12.60;99.90;;;;;;5114686;28;20529;-81
2023/08/29 00:46:57;;;;;;;0.40;0.40;;;12.60;99.90;;;;;;5114766;28;20043;-80
2023/08/29 00:49:26;;;;;;;0.40;0.40;;;12.50;99.90;;;;;;5114616;28;20040;-80
2023/08/29 00:51:52;;;;;;;0.40;0.40;;;12.50;99.90;;;;;;5113515;28;20416;-81
2023/08/29 00:54:20;;;;;;;0.50;0.50;;;12.50;99.90;;;;;;5114554;28;20089;-81
2023/08/29 00:56:47;;;;;;;0.40;0.40;;;12.60;99.90;;;;;;5114647;28;20043;-80
2023/08/29 00:59:13;;;;;;;0.40;0.40;;;12.40;99.90;;;;;;5114444;28;20046;-80
2023/08/29 01:01:39;;;;;;;0.40;0.40;;;12.30;99.90;;;;;;5114875;28;20375;-80
2023/08/29 01:04:09;;;;;;;0.40;0.40;;;12.30;99.90;;;;;;5114757;28;20035;-79
2023/08/29 01:06:37;;;;;;;0.50;0.50;;;12.30;99.90;;;;;;5114259;28;20048;-79
2023/08/29 01:09:06;;;;;;;0.30;0.30;;;12.30;99.90;;;;;;5114137;28;20391;-79
2023/08/29 01:11:45;;;;;;;0.40;0.40;;;12.30;99.90;;;;;;5114331;28;20040;-79
2023/08/29 01:14:30;;;;;;;0.30;0.30;;;12.30;99.90;;;;;;5114375;28;20046;-80
2023/08/29 01:17:20;;;;;;;0.40;0.40;;;12.30;99.90;;;;;;5113933;28;20495;-79
2023/08/29 01:19:51;;;;;;;0.50;0.50;;;12.30;99.90;;;;;;5099967;28;20043;-80
2023/08/29 01:22:28;;;;;;;0.40;0.40;;;12.30;99.90;;;;;;5114370;28;20043;-79
2023/08/29 01:25:00;;;;;;;;;;;12.30;99.90;;;;;;5115018;28;20390;-79
2023/08/29 01:27:27;;;;;;;0.40;0.40;;;12.30;99.90;;;;;;5114239;28;19915;-79
2023/08/29 01:29:53;;;;;;;0.40;0.40;;;12.30;99.90;;;;;;5114067;28;20040;-80
2023/08/29 01:32:20;;;;;;;0.40;0.40;;;12.30;99.90;;;;;;5113559;28;20060;-79
2023/08/29 01:34:46;;;;;;;0.40;0.40;;;12.20;99.90;;;;;;5114055;28;20040;-79
2023/08/29 01:37:12;;;;;;;0.40;0.40;;;12.10;99.90;;;;;;5114064;28;20055;-79
2023/08/29 01:39:37;;;;;;;0.40;0.40;;;12.10;99.90;;;;;;5114005;28;20044;-80
2023/08/29 01:42:03;;;;;;;0.30;0.30;;;12.10;99.90;;;;;;5113891;28;20035;-79
2023/08/29 01:44:29;;;;;;;0.30;0.30;;;12.10;99.90;;;;;;5113923;28;20042;-79
2023/08/29 01:46:55;;;;;;;0.45;0.45;;;12.10;99.90;;;;;;5113957;28;20036;-79
2023/08/29 01:49:20;;;;;;;0.50;0.50;;;12.00;99.90;;;;;;5112725;28;20039;-79
2023/08/29 01:51:46;;;;;;;0.60;0.60;;;12.00;99.90;;;;;;5113993;28;20034;-79
2023/08/29 01:54:12;;;;;;;0.30;0.30;;;12.00;99.90;;;;;;5113928;28;20073;-79
2023/08/29 01:56:39;;;;;;;0.40;0.40;;;12.00;99.90;;;;;;5114262;28;20467;-79
2023/08/29 01:59:06;;;;;;;0.40;0.40;;;11.90;99.90;;;;;;5114142;28;20054;-79
2023/08/29 02:01:32;;;;;;;;;;;11.90;99.90;;;;;;5114268;28;20092;-79
2023/08/29 02:03:58;;;;;;;0.50;0.50;;;11.80;99.90;;;;;;5113653;28;19923;-79
2023/08/29 02:06:23;;;;;;;0.40;0.40;;;11.80;99.90;;;;;;5113868;28;20100;-79
2023/08/29 02:08:49;;;;;;;0.50;0.50;;;11.70;99.90;;;;;;5114212;28;20076;-79
2023/08/29 02:11:15;;;;;;;0.40;0.40;;;11.70;99.90;;;;;;5113879;28;20495;-79
2023/08/29 02:13:40;;;;;;;0.47;0.47;;;11.70;99.90;;;;;;5113634;28;20082;-79
2023/08/29 02:16:06;;;;;;;0.40;0.40;;;11.70;99.90;;;;;;5113626;28;20032;-79
2023/08/29 02:18:32;;;;;;;0.30;0.30;;;11.60;99.90;;;;;;5113319;28;20044;-79
2023/08/29 02:20:57;;;;;;;0.43;0.43;;;11.60;99.90;;;;;;5113666;28;20044;-79
2023/08/29 02:23:23;;;;;;;1.60;0.40;;;11.60;99.90;;;;;;5113676;28;20048;-79
2023/08/29 02:26:02;;;;;;;0.30;0.30;;;11.60;99.90;;;;;;5113580;28;20114;-79
2023/08/29 02:28:28;;;;;;;0.40;0.40;;;11.70;99.90;;;;;;5113676;28;20369;-79
2023/08/29 02:30:54;;;;;;;0.30;0.30;;;11.60;99.90;;;;;;5113538;28;20039;-78
2023/08/29 02:33:20;;;;;;;0.50;0.50;;;11.60;99.90;;;;;;5113651;28;20084;-79
2023/08/29 02:35:46;;;;;;;0.50;0.50;;;11.60;99.90;;;;;;5113869;28;20043;-79
2023/08/29 02:38:11;;;;;;;0.30;0.30;;;11.50;99.90;;;;;;5113503;28;20078;-79
2023/08/29 02:40:37;;;;;;;0.40;0.40;;;11.60;99.90;;;;;;5112324;28;20042;-79
2023/08/29 02:43:03;;;;;;;0.30;0.30;;;11.50;99.90;;;;;;5113505;28;20045;-79
2023/08/29 02:45:28;;;;;;;0.40;0.40;;;11.50;99.90;;;;;;5115090;28;20032;-79
2023/08/29 02:47:54;;;;;;;0.40;0.40;;;11.40;99.90;;;;;;5116937;28;20089;-79
2023/08/29 02:50:19;;;;;;;0.40;0.40;;;11.40;99.90;;;;;;5117420;28;20046;-78
2023/08/29 02:52:45;;;;;;;0.40;0.40;;;11.30;99.90;;;;;;5117017;28;20097;-79
2023/08/29 02:55:10;;;;;;;1.35;0.88;;;11.30;99.90;;;;;;5116959;28;20047;-79
2023/08/29 02:57:36;;;;;;;0.40;0.40;;;11.20;99.90;;;;;;5116858;28;20044;-80
2023/08/29 03:00:05;;;;;;;0.50;0.50;;;11.30;99.90;;;;;;5116522;28;20035;-79
2023/08/29 03:02:30;;;;;;;0.40;0.40;;;11.30;99.90;;;;;;5116913;28;20039;-79
2023/08/29 03:04:56;;;;;;;0.40;0.40;;;11.80;99.90;;;;;;5117192;28;20058;-78
2023/08/29 03:07:21;;;;;;;0.40;0.40;;;11.20;99.90;;;;;;5116528;28;20047;-79
2023/08/29 03:09:47;;;;;;;0.80;0.52;;;11.20;99.90;;;;;;5116627;28;20036;-79
2023/08/29 03:12:13;;;;;;;0.40;0.40;;;11.50;99.90;;;;;;5116527;28;20061;-78
2023/08/29 03:14:39;;;;;;;0.40;0.40;;;11.30;99.90;;;;;;5116508;28;20122;-79
2023/08/29 03:17:04;;;;;;;0.40;0.40;;;11.20;99.90;;;;;;5116495;28;20131;-79
2023/08/29 03:19:30;;;;;;;0.40;0.40;;;11.20;99.90;;;;;;5116938;28;20035;-79
2023/08/29 03:21:56;;;;;;;0.40;0.40;;;11.20;99.90;;;;;;5116126;28;20463;-79
2023/08/29 03:24:21;;;;;;;0.40;0.40;;;11.20;99.90;;;;;;5116396;28;20040;-78
2023/08/29 03:26:47;;;;;;;0.40;0.40;;;11.80;99.90;;;;;;5116338;28;20471;-79
2023/08/29 03:29:12;;;;;;;0.40;0.40;;;11.20;99.90;;;;;;5116217;28;20035;-78
2023/08/29 03:31:38;;;;;;;0.43;0.43;;;11.20;99.90;;;;;;5116279;28;20455;-78
2023/08/29 03:34:04;;;;;;;0.40;0.40;;;11.20;99.90;;;;;;5115866;28;20563;-79
2023/08/29 03:36:30;;;;;;;0.40;0.40;;;11.20;99.90;;;;;;5116087;28;20036;-79
2023/08/29 03:38:56;;;;;;;0.50;0.50;;;11.20;99.90;;;;;;5116080;28;20156;-79
2023/08/29 03:41:21;;;;;;;0.40;0.40;;;11.20;99.90;;;;;;5116239;28;20042;-78
2023/08/29 03:43:47;;;;;;;0.50;0.50;;;11.40;99.90;;;;;;5116029;28;20139;-79
2023/08/29 03:46:12;;;;;;;0.50;0.50;;;11.10;99.90;;;;;;5115952;28;20042;-81
2023/08/29 03:48:38;;;;;;;0.40;0.40;;;11.00;99.90;;;;;;5115900;28;20071;-79
2023/08/29 03:51:07;;;;;;;0.40;0.40;;;11.00;99.90;;;;;;5115817;28;20036;-79
2023/08/29 03:53:34;;;;;;;0.40;0.40;;;11.00;99.90;;;;;;5114517;28;20126;-79
2023/08/29 03:56:02;;;;;;;0.47;0.47;;;10.90;99.90;;;;;;5115446;28;20062;-79
2023/08/29 03:58:29;;;;;;;0.40;0.40;;;10.90;99.90;;;;;;5115922;28;20055;-79
2023/08/29 04:00:54;;;;;;;0.50;0.50;;;10.90;99.90;;;;;;5114447;28;20061;-79
2023/08/29 04:03:20;;;;;;;0.40;0.40;;;11.50;99.90;;;;;;5114515;28;20467;-79
2023/08/29 04:05:46;;;;;;;0.40;0.40;;;10.90;99.90;;;;;;5115467;28;20114;-79
2023/08/29 04:08:12;;;;;;;0.30;0.30;;;11.40;99.90;;;;;;5115258;28;20395;-79
2023/08/29 04:10:39;;;;;;;0.40;0.40;;;10.90;99.90;;;;;;5115381;28;20050;-79
2023/08/29 04:13:05;;;;;;;;;;;10.90;99.90;;;;;;5115819;28;20051;-79
2023/08/29 04:15:31;;;;;;;0.60;0.40;;;10.90;99.90;;;;;;5115378;28;19916;-79
2023/08/29 04:17:56;;;;;;;0.50;0.50;;;10.80;99.90;;;;;;5114998;28;20047;-81
2023/08/29 04:20:23;;;;;;;0.50;0.50;;;10.80;99.90;;;;;;5114527;28;20059;-79
2023/08/29 04:22:48;;;;;;;0.40;0.40;;;10.80;99.90;;;;;;5115243;28;20039;-79
2023/08/29 04:25:14;;;;;;;0.70;0.70;;;10.90;99.90;;;;;;5115279;28;20039;-79
2023/08/29 04:27:41;;;;;;;0.40;0.40;;;10.80;99.90;;;;;;5115105;28;20036;-79
2023/08/29 04:30:07;;;;;;;0.45;0.45;;;10.70;99.90;;;;;;5113831;28;20069;-79
2023/08/29 04:32:37;;;;;;;0.40;0.40;;;10.80;99.90;;;;;;5115000;28;20032;-79
2023/08/29 04:35:06;;;;;;;0.50;0.50;;;10.70;99.90;;;;;;5115380;28;20122;-79
2023/08/29 04:37:34;;;;;;;0.40;0.40;;;10.70;99.90;;;;;;5114829;28;20043;-79
2023/08/29 04:40:00;;;;;;;0.43;0.43;;;10.60;99.90;;;;;;5114757;28;20040;-79
2023/08/29 04:42:26;;;;;;;0.47;0.47;;;10.60;99.90;;;;;;5114740;28;20175;-79
2023/08/29 04:44:53;;;;;;;0.40;0.40;;;10.60;99.90;;;;;;5114700;28;20036;-79
2023/08/29 04:47:22;;;;;;;0.40;0.40;;;10.60;99.90;;;;;;5114906;28;20039;-79
2023/08/29 04:49:48;;;;;;;0.60;0.60;;;10.50;99.90;;;;;;5114577;28;20086;-79
2023/08/29 04:52:14;;;;;;;0.40;0.40;;;10.50;99.90;;;;;;5114700;28;20476;-79
2023/08/29 04:54:39;;;;;;;0.47;0.47;;;10.60;99.90;;;;;;5114940;28;20476;-79
2023/08/29 04:57:05;;;;;;;0.40;0.40;;;10.60;99.90;;;;;;5114551;28;20039;-79
2023/08/29 04:59:31;;;;;;;0.40;0.40;;;10.60;99.90;;;;;;5113264;28;20036;-78
2023/08/29 05:01:56;;;;;;;0.50;0.50;;;10.60;99.90;;;;;;5114630;28;20099;-79
2023/08/29 05:04:22;;;;;;;0.40;0.40;;;10.60;99.90;;;;;;5114434;28;20478;-79
2023/08/29 05:06:48;;;;;;;0.40;0.40;;;10.60;99.90;;;;;;5114154;28;20051;-79
2023/08/29 05:09:14;;;;;;;0.40;0.40;;;10.60;99.90;;;;;;5114036;28;20035;-79
2023/08/29 05:11:39;;;;;;;0.50;0.50;;;10.60;99.90;;;;;;5114426;28;20114;-79
2023/08/29 05:14:05;;;;;;;0.50;0.50;;;10.50;99.90;;;;;;5114264;28;20463;-79
2023/08/29 05:16:32;;;;;;;0.43;0.43;;;10.50;99.90;;;;;;5114323;28;20035;-78
2023/08/29 05:18:58;;;;;;;0.50;0.50;;;10.50;99.90;;;;;;5114258;28;20122;-79
2023/08/29 05:21:24;;;;;;;0.40;0.40;;;10.50;99.90;;;;;;5114556;28;20089;-79
2023/08/29 05:23:50;;;;;;;0.50;0.50;;;11.10;99.90;;;;;;5114290;28;20071;-79
2023/08/29 05:26:15;;;;;;;0.40;0.40;;;10.60;99.90;;;;;;5114262;28;20039;-79
2023/08/29 05:28:42;;;;;;;0.73;0.73;;;10.60;99.90;;;;;;5113974;28;20031;-79
2023/08/29 05:31:07;;;;;;;0.40;0.40;;;10.70;99.90;;;;;;5114085;28;20063;-79
2023/08/29 05:33:33;;;;;;;0.50;0.50;;;10.70;99.90;;;;;;5112858;28;20517;-79
2023/08/29 05:35:59;;;;;;;0.50;0.50;;;10.70;99.90;;;;;;5114119;28;20039;-79
2023/08/29 05:38:25;;;;;;;0.40;0.40;;;10.70;99.90;;;;;;5114090;28;20368;-79
2023/08/29 05:40:54;;;;;;;0.50;0.50;;;10.70;99.90;;;;;;5113971;28;20048;-79
2023/08/29 05:43:20;;;;;;;0.50;0.50;;;10.70;99.90;;;;;;5112682;28;20036;-79
2023/08/29 05:45:46;;;;;;;0.60;0.60;;;10.70;99.90;;;;;;5113948;28;20046;-79
2023/08/29 05:48:11;;;;;;;0.50;0.50;;;10.80;99.90;;;;;;5112675;28;20031;-79
2023/08/29 05:50:41;;;;;;;0.50;0.50;;;10.70;99.90;;;;;;5114169;28;20086;-79
2023/08/29 05:53:06;;;;;;;0.50;0.50;;;10.80;99.90;;;;;;5113866;28;20043;-79
2023/08/29 05:55:33;;;;;;;0.60;0.60;;;10.80;99.90;;;;;;5113866;28;20061;-79
2023/08/29 05:57:59;;;;;;;0.40;0.40;;;10.90;99.90;;;;;;5113923;28;20118;-79
2023/08/29 06:00:25;;;;;;;0.45;0.45;;;11.00;99.90;;;;;;5113815;28;20495;-79
2023/08/29 06:02:52;;;;;;;0.60;0.60;;;11.00;99.90;;;;;;5113910;28;20044;-79
2023/08/29 06:05:18;;;;;;;0.40;0.40;;;11.10;99.90;;;;;;5112978;28;20050;-79
2023/08/29 06:07:44;;;;;;;0.40;0.40;;;11.20;99.90;;;;;;5113860;28;20048;-79
2023/08/29 06:10:10;;;;;;;0.40;0.40;;;11.30;99.90;;;;;;5113764;28;20036;-78
2023/08/29 06:12:35;;;;;;;0.40;0.40;;;11.30;99.90;;;;;;5113707;28;20371;-79
2023/08/29 06:15:01;;;;;;;0.40;0.40;;;11.50;99.90;;;;;;5112537;28;20043;-79
2023/08/29 06:17:27;;;;;;;0.47;0.47;;;11.50;99.90;;;;;;5113691;28;20069;-79
2023/08/29 06:19:52;;;;;;;0.50;0.50;;;11.60;99.90;;;;;;5116374;28;20460;-79
2023/08/29 06:22:18;;;;;;;0.60;0.60;;;11.70;99.90;;;;;;5117588;28;20035;-78
2023/08/29 06:24:43;;;;;;;0.43;0.43;;;11.80;99.90;;;;;;5117608;28;20078;-79
2023/08/29 06:27:09;;;;;;;0.60;0.60;;;11.90;99.90;;;;;;5117473;28;20080;-79
2023/08/29 06:29:35;;;;;;;0.30;0.30;;;12.00;99.90;;;;;;5117335;28;20121;-79
2023/08/29 06:32:00;;;;;;;0.30;0.30;;;12.10;99.90;;;;;;5117501;28;20069;-79
2023/08/29 06:34:26;;;;;;;0.40;0.40;;;12.10;99.90;;;;;;5117461;28;20075;-79
2023/08/29 06:36:51;;;;;;;0.40;0.40;;;12.20;99.90;;;;;;5117192;28;20049;-78
2023/08/29 06:39:17;;;;;;;0.47;0.47;;;12.30;99.90;;;;;;5117325;28;20065;-79
2023/08/29 06:41:43;;;;;;;0.50;0.50;;;12.40;99.90;;;;;;5117205;28;20050;-79
2023/08/29 06:44:09;;;;;;;0.47;0.47;;;12.50;99.90;;;;;;5117369;28;20147;-79
2023/08/29 06:46:35;;;;;;;0.40;0.40;;;12.60;99.90;;;;;;5116949;28;20142;-79
2023/08/29 06:49:00;;;;;;;0.40;0.40;;;12.60;99.90;;;;;;5117111;28;20379;-79
2023/08/29 06:51:26;;;;;;;0.80;0.50;;;12.80;99.90;;;;;;5117119;28;20050;-79
2023/08/29 06:53:51;;;;;;;0.50;0.50;;;12.80;99.90;;;;;;5117321;28;20038;-79
2023/08/29 06:56:18;;;;;;;0.40;0.40;;;13.00;99.90;;;;;;5116724;28;20093;-79
2023/08/29 06:58:44;;;;;;;0.30;0.30;;;13.00;99.90;;;;;;5116821;28;20035;-79
2023/08/29 07:01:10;;;;;;;0.40;0.40;;;13.10;99.90;;;;;;5117298;28;20043;-79
2023/08/29 07:03:35;;;;;;;0.40;0.40;;;13.10;99.90;;;;;;5117224;28;20087;-79
2023/08/29 07:06:01;;;;;;;0.40;0.40;;;13.20;99.90;;;;;;5116809;28;20122;-79
2023/08/29 07:08:26;;;;;;;0.43;0.43;;;13.30;99.90;;;;;;5116812;28;20415;-79
2023/08/29 07:10:52;;;;;;;0.40;0.40;;;13.40;99.90;;;;;;5108534;28;20039;-79
2023/08/29 07:13:18;;;;;;;0.40;0.40;;;13.40;99.90;;;;;;5106473;28;20368;-72
2023/08/29 07:15:43;;;;;;;0.40;0.40;;;13.50;99.90;;;;;;5116121;28;20456;-73
2023/08/29 07:18:09;;;;;;;0.32;0.32;;;13.60;99.90;;;;;;5108790;28;20070;-80
2023/08/29 07:20:37;;;;;;;0.40;0.40;;;13.70;99.90;;;;;;5095082;28;20044;-81
2023/08/29 07:23:02;;;;;;;0.40;0.40;;;13.80;99.90;;;;;;5095953;28;20506;-80
2023/08/29 07:25:39;;;;;;;0.40;0.40;;;13.80;99.90;;;;;;5096092;28;20044;-80
2023/08/29 07:28:10;;;;;;;0.30;0.30;;;13.90;99.90;;;;;;5095853;28;20048;-80
2023/08/29 07:30:43;;;;;;;0.40;0.40;;;14.00;99.90;;;;;;5095084;28;20039;-80
2023/08/29 07:33:10;;;;;;;0.40;0.40;;;14.10;99.90;;;;;;5095843;28;20121;-80
2023/08/29 07:35:36;;;;;;;0.40;0.40;;;14.20;99.90;;;;;;5096014;28;20040;-80
2023/08/29 07:38:02;;;;;;;0.37;0.37;;;14.30;99.90;;;;;;5095806;28;20075;-80
2023/08/29 07:40:28;;;;;;;0.30;0.30;;;14.40;99.90;;;;;;5095640;28;20102;-80
2023/08/29 07:42:53;;;;;;;0.40;0.40;;;14.60;99.90;;;;;;5096127;28;20040;-80
2023/08/29 07:45:19;;;;;;;0.40;0.40;;;14.70;99.90;;;;;;5095324;28;20045;-80
2023/08/29 07:47:45;;;;;;;0.30;0.30;;;14.80;99.90;;;;;;5095639;28;20040;-80
2023/08/29 07:50:10;;;;;;;0.50;0.50;;;15.20;99.90;;;;;;5095510;28;20039;-79
2023/08/29 07:52:37;;;;;;;0.40;0.40;;;15.10;99.90;;;;;;5094316;28;20523;-80
2023/08/29 07:55:04;;;;;;;0.57;0.57;;;15.60;99.90;;;;;;5095380;28;20464;-79
2023/08/29 07:57:30;;;;;;;0.30;0.30;;;15.40;99.90;;;;;;5095303;28;20031;-80
2023/08/29 07:59:55;;;;;;;0.40;0.40;;;15.50;99.90;;;;;;5095289;28;20040;-80
2023/08/29 08:02:21;;;;;;;0.47;0.47;;;15.70;99.90;;;;;;5094060;28;20036;-80
2023/08/29 08:04:47;;;;;;;0.30;0.30;;;15.80;99.90;;;;;;5095225;28;20044;-80
2023/08/29 08:07:12;;;;;;;0.30;0.30;;;15.90;99.90;;;;;;5094798;28;20400;-80
2023/08/29 08:09:38;;;;;;;0.30;0.30;;;16.10;99.90;;;;;;5095141;28;20048;-80
2023/08/29 08:12:04;;;;;;;0.30;0.30;;;16.20;99.90;;;;;;5095008;28;20047;-80
2023/08/29 08:14:29;;;;;;;0.30;0.30;;;16.30;99.90;;;;;;5095465;28;20460;-80
2023/08/29 08:16:55;;;;;;;0.30;0.30;;;16.40;99.90;;;;;;5094846;28;20036;-80
2023/08/29 08:19:20;;;;;;;0.30;0.30;;;16.40;99.90;;;;;;5094996;28;20094;-80
2023/08/29 08:21:46;;;;;;;0.32;0.32;;;16.60;99.90;;;;;;5094881;28;20376;-80
2023/08/29 08:24:12;;;;;;;0.30;0.30;;;16.60;99.90;;;;;;5094959;28;20036;-80
2023/08/29 08:26:37;;;;;;;0.30;0.30;;;16.80;99.90;;;;;;5094683;28;20044;-80
2023/08/29 08:29:04;;;;;;;0.30;0.30;;;16.90;99.90;;;;;;5094886;28;20042;-80
2023/08/29 08:31:31;;;;;;;0.35;0.35;;;16.90;99.90;;;;;;5094698;28;20365;-80
2023/08/29 08:33:56;;;;;;;0.35;0.35;;;16.90;99.90;;;;;;5093557;28;20059;-80
2023/08/29 08:36:22;;;;;;;0.40;0.40;;;17.00;99.90;;;;;;5094606;28;20036;-80
2023/08/29 08:38:48;;;;;;;0.40;0.40;;;17.10;99.90;;;;;;5094677;28;20040;-80
2023/08/29 08:41:15;;;;;;;0.20;0.20;;;17.20;99.90;;;;;;5094458;28;20035;-80
2023/08/29 08:43:42;;;;;;;0.30;0.30;;;17.20;99.90;;;;;;5094411;28;20442;-80
2023/08/29 08:46:09;;;;;;;0.30;0.30;;;17.20;99.90;;;;;;5094084;28;20391;-80
2023/08/29 08:48:37;;;;;;;6.53;0.45;;;17.30;99.90;;;;;;5093275;28;20036;-80
2023/08/29 08:51:04;;;;;;;0.30;0.30;;;17.30;99.90;;;;;;5094359;28;20036;-80
2023/08/29 08:53:30;;;;;;;0.30;0.30;;;17.40;99.90;;;;;;5094495;28;20383;-80
2023/08/29 08:55:56;;;;;;;0.30;0.30;;;17.50;99.90;;;;;;5093834;28;20113;-80
2023/08/29 08:58:22;;;;;;;0.30;0.30;;;17.50;99.90;;;;;;5094368;28;20044;-80
2023/08/29 09:00:48;;;;;;;0.30;0.30;;;17.60;99.90;;;;;;5094178;28;20349;-80
2023/08/29 09:03:13;;;;;;;0.30;0.30;;;17.60;99.90;;;;;;5094000;28;20156;-80
2023/08/29 09:05:40;;;;;;;0.30;0.30;;;17.70;99.90;;;;;;5094324;28;20066;-80
2023/08/29 09:08:06;;;;;;;0.30;0.30;;;17.80;99.90;;;;;;5094201;28;20058;-80
2023/08/29 09:10:33;;;;;;;0.30;0.30;;;17.80;99.90;;;;;;5093918;28;20123;-80
2023/08/29 09:13:00;;;;;;;0.30;0.30;;;17.90;99.90;;;;;;5094407;28;20094;-80
2023/08/29 09:15:26;;;;;;;0.50;0.47;;;18.00;99.90;;;;;;5094227;28;20048;-80
2023/08/29 09:17:53;;;;;;;1.55;0.82;;;18.10;99.90;;;;;;5094034;28;20044;-80
2023/08/29 09:20:20;;;;;;;0.20;0.20;;;18.10;99.90;;;;;;5093831;28;20048;-80
2023/08/29 09:22:47;;;;;;;0.30;0.30;;;18.10;99.90;;;;;;5093695;28;20036;-80
2023/08/29 09:25:12;;;;;;;0.30;0.30;;;18.20;99.90;;;;;;5092888;28;20055;-80
2023/08/29 09:27:42;;;;;;;0.40;0.40;;;18.20;99.90;;;;;;5093870;28;20048;-80
2023/08/29 09:30:13;;;;;;;0.30;0.30;;;18.30;99.90;;;;;;5092525;28;20079;-80
2023/08/29 09:32:45;;;;;;;0.30;0.30;;;18.30;99.90;;;;;;5093715;28;20036;-80
2023/08/29 09:35:16;;;;;;;0.32;0.32;;;18.40;99.90;;;;;;5093795;28;20357;-80
2023/08/29 09:37:50;;;;;;;0.30;0.30;;;18.50;99.90;;;;;;5093567;28;20039;-80
2023/08/29 09:40:20;;;;;;;0.30;0.30;;;18.50;99.90;;;;;;5093646;28;20547;-80
2023/08/29 09:42:59;;;;;;;0.30;0.30;;;18.70;99.90;;;;;;5092449;28;20054;-80
2023/08/29 09:45:28;;;;;;;0.30;0.30;;;18.80;99.90;;;;;;5093456;28;20043;-80
2023/08/29 09:47:54;;;;;;;0.30;0.30;;;18.70;99.90;;;;;;5093550;28;20115;-80
2023/08/29 09:50:21;;;;;;;0.30;0.30;;;18.80;99.90;;;;;;5093441;28;20135;-80
2023/08/29 09:52:51;;;;;;;0.30;0.30;;;18.80;99.90;;;;;;5093511;28;20063;-80
2023/08/29 09:55:20;;;;;;;0.20;0.20;;;18.90;99.90;;;;;;5097133;28;20039;-80
2023/08/29 09:57:51;;;;;;;0.63;0.47;;;18.90;99.90;;;;;;5097585;28;20052;-80
2023/08/29 10:00:21;;;;;;;0.30;0.30;;;18.90;99.90;;;;;;5097552;28;20036;-80
2023/08/29 10:02:54;;;;;;;0.28;0.28;;;18.90;99.90;;;;;;5097471;28;20044;-80
2023/08/29 10:05:25;;;;;;;0.30;0.30;;;18.90;99.90;;;;;;5097538;28;20377;-80
2023/08/29 10:07:55;;;;;;;0.20;0.20;;;18.90;99.90;;;;;;5097577;28;20456;-80
2023/08/29 10:10:21;;;;;;;0.20;0.20;;;19.00;99.90;;;;;;5097534;28;20044;-80
2023/08/29 10:12:48;;;;;;;0.25;0.25;;;19.10;99.90;;;;;;5097289;28;20047;-80
2023/08/29 10:15:16;;;;;;;0.30;0.30;;;19.20;99.90;;;;;;5097308;28;20044;-80
2023/08/29 10:17:44;;;;;;;0.43;0.43;;;19.40;99.90;;;;;;5097224;28;20044;-80
2023/08/29 10:20:12;;;;;;;0.30;0.30;;;19.50;99.90;;;;;;5097566;28;20416;-80
2023/08/29 10:22:40;;;;;;;0.30;0.30;;;19.70;99.90;;;;;;5097239;28;20040;-80
2023/08/29 10:25:06;;;;;;;0.30;0.30;;;19.80;99.90;;;;;;5097353;28;20040;-80
2023/08/29 10:27:33;;;;;;;0.30;0.30;;;20.00;99.90;;;;;;5097166;28;20036;-80
2023/08/29 10:30:00;;;;;;;;;;;20.10;99.90;;;;;;5096244;28;20119;-80
2023/08/29 10:32:27;;;;;;;0.20;0.20;;;20.10;99.90;;;;;;5096951;28;19966;-80
2023/08/29 10:34:53;;;;;;;0.30;0.30;;;20.10;99.90;;;;;;5096648;28;20541;-80
2023/08/29 10:37:20;;;;;;;0.33;0.33;;;20.00;99.90;;;;;;5096816;28;20032;-80
2023/08/29 10:39:46;;;;;;;0.20;0.20;;;20.00;99.90;;;;;;5096905;28;20111;-80
2023/08/29 10:42:15;;;;;;;0.20;0.20;;;19.90;99.90;;;;;;5096778;28;20090;-80
2023/08/29 10:44:43;;;;;;;0.30;0.30;;;19.90;99.90;;;;;;5096744;28;20278;-80
2023/08/29 10:47:20;;;;;;;0.28;0.28;;;19.90;99.90;;;;;;5096474;28;20476;-80
2023/08/29 10:49:47;;;;;;;0.30;0.30;;;19.90;99.90;;;;;;5096591;28;20036;-80
2023/08/29 10:52:14;;;;;;;0.20;0.20;;;20.00;99.90;;;;;;5096867;28;20048;-80
2023/08/29 10:54:40;;;;;;;;;;;20.10;99.90;;;;;;5097162;28;20054;-80
2023/08/29 10:57:29;;;;;;;0.20;0.20;;;20.20;99.90;;;;;;5096544;28;19916;-80
2023/08/29 10:59:55;;;;;;;0.30;0.30;;;20.30;99.90;;;;;;5096528;28;20082;-80
2023/08/29 11:02:29;;;;;;;0.30;0.30;;;20.40;99.90;;;;;;5096459;28;20361;-80
2023/08/29 11:05:03;;;;;;;0.20;0.20;;;20.40;99.90;;;;;;5095761;28;20439;-80
2023/08/29 11:07:29;;;;;;;0.30;0.30;;;20.40;99.90;;;;;;5096049;28;20052;-80
2023/08/29 11:10:15;;;;;;;0.30;0.30;;;20.40;99.90;;;;;;5096669;28;20036;-80
2023/08/29 11:13:23;;;;;;;0.30;0.30;;;20.30;99.90;;;;;;5096611;28;20036;-80
2023/08/29 11:15:51;;;;;;;0.20;0.20;;;20.40;99.90;;;;;;5095614;28;20062;-80
2023/08/29 11:18:21;;;;;;;0.38;0.38;;;20.40;99.90;;;;;;5096122;28;20040;-80
2023/08/29 11:20:46;;;;;;;0.20;0.20;;;20.50;99.90;;;;;;5095893;28;20480;-80
2023/08/29 11:23:12;;;;;;;0.20;0.20;;;20.50;99.90;;;;;;5096040;28;20121;-80
2023/08/29 11:25:38;;;;;;;0.30;0.30;;;20.60;99.90;;;;;;5095992;28;20086;-80
2023/08/29 11:28:05;;;;;;;0.30;0.30;;;20.60;99.90;;;;;;5096019;28;20472;-80
2023/08/29 11:30:31;;;;;;;0.28;0.28;;;20.70;99.90;;;;;;5095752;28;20470;-80
2023/08/29 11:32:56;;;;;;;0.20;0.20;;;20.70;99.90;;;;;;5095973;28;20040;-80
2023/08/29 11:35:22;;;;;;;0.20;0.20;;;20.70;99.90;;;;;;5095738;28;20112;-80
2023/08/29 11:37:48;;;;;;;0.30;0.30;;;20.60;99.90;;;;;;5096196;28;20051;-80
2023/08/29 11:40:18;;;;;;;0.30;0.30;;;20.60;99.90;;;;;;5095829;28;20621;-80
2023/08/29 11:42:44;;;;;;;0.20;0.20;;;20.50;99.90;;;;;;5095796;28;20084;-80
2023/08/29 11:45:10;;;;;;;0.30;0.30;;;20.40;99.90;;;;;;5095690;28;20131;-80
2023/08/29 11:47:35;;;;;;;0.30;0.30;;;20.50;99.90;;;;;;5095604;28;20043;-81
2023/08/29 11:50:04;;;;;;;0.30;0.30;;;20.50;99.90;;;;;;5095826;28;20032;-80
2023/08/29 11:52:31;;;;;;;0.30;0.30;;;20.60;99.90;;;;;;5094691;28;20044;-81
2023/08/29 11:54:56;;;;;;;0.65;0.50;;;20.60;99.90;;;;;;5095684;28;20040;-81
2023/08/29 11:57:23;;;;;;;0.37;0.37;;;20.70;99.90;;;;;;5095349;28;20047;-81
2023/08/29 11:59:51;;;;;;;0.30;0.30;;;20.90;99.90;;;;;;5095264;28;20038;-81
2023/08/29 12:02:18;;;;;;;0.20;0.20;;;20.90;99.90;;;;;;5094078;28;20085;-81
2023/08/29 12:04:45;;;;;;;0.20;0.20;;;21.00;99.90;;;;;;5095223;28;20039;-81
2023/08/29 12:07:18;;;;;;;0.20;0.20;;;21.00;99.90;;;;;;5095005;28;20059;-81
2023/08/29 12:09:45;;;;;;;0.20;0.20;;;21.10;99.90;;;;;;5093392;28;20169;-81
2023/08/29 12:12:28;;;;;;;0.20;0.20;;;21.10;99.90;;;;;;5095084;28;20083;-81
2023/08/29 12:14:54;;;;;;;0.20;0.20;;;21.00;99.90;;;;;;5095088;28;20040;-81
2023/08/29 12:17:20;;;;;;;0.20;0.20;;;20.90;99.90;;;;;;5094769;28;20094;-81
2023/08/29 12:19:47;;;;;;;0.20;0.20;;;20.80;99.90;;;;;;5094783;28;20047;-80
2023/08/29 12:22:13;;;;;;;;;;;20.60;99.90;;;;;;5094356;28;20051;-81
2023/08/29 12:24:41;;;;;;;0.20;0.20;;;20.40;99.90;;;;;;5094838;28;20009;-80
2023/08/29 12:27:07;;;;;;;0.20;0.20;;;20.10;99.90;;;;;;5094705;28;20081;-80
2023/08/29 12:29:33;;;;;;;0.30;0.30;;;19.90;99.90;;;;;;5094356;28;20092;-80
2023/08/29 12:31:59;;;;;;;0.30;0.30;;;19.60;99.90;;;;;;5094731;28;20048;-80
2023/08/29 12:34:25;;;;;;;0.30;0.30;;;19.30;99.90;;;;;;5094750;28;20036;-80
2023/08/29 12:36:51;;;;;;;;;;;19.20;99.90;;;;;;5095076;28;20036;-80
2023/08/29 12:39:17;;;;;;;0.20;0.20;;;19.00;99.90;;;;;;5094546;28;19920;-80
2023/08/29 12:41:43;;;;;;;0.30;0.30;;;18.80;99.90;;;;;;5094558;28;20051;-80
2023/08/29 12:44:08;;;;;;;5.23;0.40;;;18.60;99.90;;;;;;5093699;28;20065;-80
2023/08/29 12:46:34;;;;;;;0.30;0.30;;;18.50;99.90;;;;;;5094890;28;20530;-80